Kidlington, United Kingdom

12:51 PM BST on August 02, 2015 (GMT +0100)
Begbroke | | Change Station
CLOSE
Current Station
Personal Weather Station
Location: Kidlington, OXFORDSHIRE
Elevation: 265 ft
Nearby Weather Stations

Elev 265 ft 51.82 °N, 1.32 °W | Updated 6 minutes ago

Partly Cloudy
Partly Cloudy
70.8 °F
Feels Like 75 °F
N
3.0
Wind Variable Wind from ESE
Gusts 14.0 mph

Today
High -- | Low -- °F
--% Chance of Precip.
Yesterday
High -- | Low -- °F
Precip. -- in
5:28 AM 8:53 PM
Waning Gibbous, 94% visible
Pressure 30.03 in
Visibility 6.2 miles
Clouds Few 3500 ft
Heat Index 75 °F
Dew Point 58 °F
Humidity 64%
Rainfall 0.00 in
Snow Depth Not available.
UV 2.3 out of 12
Pollen Not available.
Air Quality Not available.
Flu Activity Not available.
METAR EGVA 021058Z AUTO 17012G15KT 9999 FEW035 20/12 A3002 RMK AO2 SLP168 T02020117

More Conditions Fewer Conditions

Pressure 30.03 in
Visibility 6.2 miles
Clouds Few 3500 ft
Heat Index 75 °F
Dew Point 58 °F
Humidity 64%
Rainfall 0.00 in
Snow Depth Not available.
UV 2.3 out of 12
Pollen Not available.
Air Quality Not available.
Flu Activity Not available.
METAR EGVA 021058Z AUTO 17012G15KT 9999 FEW035 20/12 A3002 RMK AO2 SLP168 T02020117

More Conditions Fewer Conditions

10-Day Weather Forecast

×

Almanac

Astronomy

Aug. 02, 2015 Rise Set
Actual Time
Civil Twilight
Nautical Twilight
Astronomical Twilight
Moon
Length of Visible Light
Length of Day
Tomorrow will be .
, % of the Moon is Illuminated

Today's Extremes

Country Highs Country Lows

Community

WunderPhotos

Upload Photos

1,843,233 photos uploaded!

WunderBlogs® & News

Nearby

Air Quality

  Air Quality AQ Index Pollutant
Not available.

Snow Depth

Station Depth Elevation

Earthquake Activity

City Distance Mag. Time & Date
Minimum magnitude displayed is 2.5.

Coastal Water Temperatures

Place Temperature

Stations

Nearby Weather Stations

Station Location Temp. Windchill Dew Point Humidity Wind Precip. Elev Updated Type